createdAt,value
2023-04-26T00:00:24.603Z,19.42
2023-04-26T00:01:27.506Z,19.70
2023-04-26T00:02:29.854Z,18.08
2023-04-26T00:03:32.996Z,24.73
2023-04-26T00:04:35.756Z,18.42
2023-04-26T00:05:38.752Z,17.48
2023-04-26T00:06:41.522Z,20.02
2023-04-26T00:07:44.386Z,25.25
2023-04-26T00:08:46.544Z,17.52
2023-04-26T00:09:48.832Z,18.30
2023-04-26T00:10:51.002Z,18.75
2023-04-26T00:11:53.196Z,19.10
2023-04-26T00:12:55.392Z,21.63
2023-04-26T00:13:58.757Z,19.38
2023-04-26T00:15:00.973Z,18.85
2023-04-26T00:16:03.717Z,20.60
2023-04-26T00:17:06.187Z,23.08
2023-04-26T00:18:08.463Z,23.00
2023-04-26T00:19:11.855Z,19.67
2023-04-26T00:20:14.112Z,20.13
2023-04-26T00:21:16.525Z,23.00
2023-04-26T00:22:18.728Z,23.23
2023-04-26T00:23:21.011Z,23.35
2023-04-26T00:24:23.556Z,25.17
2023-04-26T00:25:25.821Z,27.90
2023-04-26T00:26:28.109Z,22.92
2023-04-26T00:27:30.332Z,28.02
2023-04-26T00:28:32.514Z,37.05
2023-04-26T00:29:35.300Z,31.38
2023-04-26T00:30:41.083Z,30.08
2023-04-26T00:31:44.903Z,35.75
2023-04-26T00:32:47.891Z,25.42
2023-04-26T00:33:51.226Z,29.30
2023-04-26T00:34:53.468Z,31.95
2023-04-26T00:35:56.108Z,25.23
2023-04-26T00:36:58.344Z,34.20
2023-04-26T00:38:00.869Z,28.20
2023-04-26T00:39:03.266Z,26.42
2023-04-26T00:40:06.382Z,25.63
2023-04-26T00:41:08.553Z,25.60
2023-04-26T00:42:10.743Z,31.60
2023-04-26T00:43:13.067Z,25.13
2023-04-26T00:44:15.708Z,29.65
2023-04-26T00:45:17.864Z,31.23
2023-04-26T00:46:20.989Z,39.03
2023-04-26T00:47:25.840Z,32.42
2023-04-26T00:48:28.660Z,51.10
2023-04-26T00:49:31.056Z,37.78
2023-04-26T00:50:34.021Z,25.58
2023-04-26T00:51:37.545Z,36.67
2023-04-26T00:52:39.747Z,25.38
2023-04-26T00:53:42.753Z,30.67
2023-04-26T00:54:45.263Z,39.20
2023-04-26T00:55:47.666Z,36.67
2023-04-26T00:56:52.957Z,41.15
2023-04-26T00:57:55.318Z,38.05
2023-04-26T00:58:57.601Z,37.15
2023-04-26T00:59:59.826Z,36.13
2023-04-26T01:01:02.985Z,32.05
2023-04-26T01:02:05.599Z,37.83
2023-04-26T01:03:08.220Z,29.30
2023-04-26T01:04:12.996Z,24.70
2023-04-26T01:05:15.329Z,36.90
2023-04-26T01:06:19.859Z,24.85
2023-04-26T01:07:22.252Z,24.92
2023-04-26T01:08:24.441Z,22.75
2023-04-26T01:09:26.688Z,29.00
2023-04-26T01:10:29.210Z,27.83
2023-04-26T01:11:34.631Z,30.08
2023-04-26T01:12:38.140Z,37.35
2023-04-26T01:13:42.008Z,28.35
2023-04-26T01:14:45.118Z,40.03
2023-04-26T01:15:48.384Z,25.60
2023-04-26T01:16:52.141Z,27.75
2023-04-26T01:17:54.700Z,28.20
2023-04-26T01:18:57.803Z,24.90
2023-04-26T01:19:59.979Z,25.73
2023-04-26T01:21:04.638Z,26.50
2023-04-26T01:22:06.795Z,22.00
2023-04-26T01:23:10.007Z,26.27
2023-04-26T01:24:13.830Z,24.10
2023-04-26T01:25:16.272Z,24.35
2023-04-26T01:26:18.776Z,20.67
2023-04-26T01:27:22.571Z,21.27
2023-04-26T01:28:24.804Z,22.17
2023-04-26T01:29:27.293Z,23.65
2023-04-26T01:30:29.537Z,23.27
2023-04-26T01:31:31.750Z,25.60
2023-04-26T01:32:34.925Z,25.77
2023-04-26T01:33:37.189Z,22.35
2023-04-26T01:34:39.404Z,25.95
2023-04-26T01:35:42.088Z,25.00
2023-04-26T01:36:44.239Z,27.08
2023-04-26T01:37:46.409Z,21.58
2023-04-26T01:38:48.595Z,28.92
2023-04-26T01:39:50.858Z,23.70
2023-04-26T01:40:55.486Z,27.65
2023-04-26T01:41:58.682Z,23.60
2023-04-26T01:43:03.131Z,22.80
2023-04-26T01:44:05.356Z,29.52
2023-04-26T01:45:07.793Z,27.20
2023-04-26T01:46:28.693Z,26.38
2023-04-26T01:47:30.927Z,31.83
2023-04-26T01:48:33.177Z,26.35
2023-04-26T01:49:37.301Z,32.30
2023-04-26T01:50:39.609Z,33.10
2023-04-26T01:51:41.946Z,42.70
2023-04-26T01:52:44.264Z,37.45
2023-04-26T01:53:47.278Z,30.08
2023-04-26T01:54:49.493Z,32.90
2023-04-26T01:55:51.711Z,26.65
2023-04-26T01:56:54.017Z,28.25
2023-04-26T01:57:56.314Z,23.83
2023-04-26T01:58:59.140Z,22.95
2023-04-26T02:02:11.484Z,25.75
2023-04-26T02:03:13.966Z,22.70
2023-04-26T02:04:16.235Z,23.58
2023-04-26T02:05:18.532Z,28.00
2023-04-26T02:06:21.654Z,22.83
2023-04-26T02:07:23.822Z,24.98
2023-04-26T02:08:31.684Z,23.90
2023-04-26T02:09:33.932Z,27.20
2023-04-26T02:10:37.535Z,30.70
2023-04-26T02:11:39.703Z,32.40
2023-04-26T02:12:41.932Z,31.17
2023-04-26T02:13:44.129Z,22.10
2023-04-26T02:14:46.340Z,37.72
2023-04-26T02:15:49.881Z,28.75
2023-04-26T02:16:52.191Z,36.85
2023-04-26T02:17:55.618Z,30.35
2023-04-26T02:18:59.281Z,41.00
2023-04-26T02:20:01.543Z,46.17
2023-04-26T02:21:08.410Z,37.45
2023-04-26T02:22:10.609Z,38.75
2023-04-26T02:23:16.717Z,43.10
2023-04-26T02:24:19.079Z,38.15
2023-04-26T02:25:21.450Z,31.63
2023-04-26T02:26:23.732Z,40.28
2023-04-26T02:27:26.119Z,32.13
2023-04-26T02:28:30.177Z,33.63
2023-04-26T02:29:43.651Z,32.90
2023-04-26T02:30:46.964Z,28.80
2023-04-26T02:31:49.288Z,33.55
2023-04-26T02:32:56.303Z,172.95
2023-04-26T02:33:58.622Z,148.40
2023-04-26T02:35:01.473Z,49.67
2023-04-26T02:36:08.277Z,53.17
2023-04-26T02:37:10.914Z,109.25
2023-04-26T02:38:13.749Z,52.08
2023-04-26T02:39:16.927Z,88.20
2023-04-26T02:40:19.808Z,61.63
2023-04-26T02:41:23.555Z,145.15
2023-04-26T02:42:26.079Z,95.95
2023-04-26T02:43:28.698Z,73.13
2023-04-26T02:44:31.117Z,119.85
2023-04-26T02:45:33.812Z,66.70
2023-04-26T02:46:36.248Z,214.82
2023-04-26T02:47:38.725Z,187.38
2023-04-26T02:48:41.148Z,119.63
2023-04-26T02:49:43.340Z,326.23
2023-04-26T02:50:47.262Z,293.92
2023-04-26T02:51:51.832Z,512.33
2023-04-26T02:52:54.081Z,517.72
2023-04-26T02:53:56.399Z,571.38
2023-04-26T02:54:58.574Z,568.40
2023-04-26T02:56:01.517Z,719.50
2023-04-26T02:57:04.492Z,515.00
2023-04-26T02:58:06.679Z,554.30
2023-04-26T02:59:09.171Z,528.15
2023-04-26T03:00:13.838Z,308.67
2023-04-26T03:01:16.311Z,374.42
2023-04-26T03:02:18.687Z,687.75
2023-04-26T03:03:23.098Z,648.95
2023-04-26T03:04:25.740Z,941.22
2023-04-26T03:05:28.293Z,756.83
2023-04-26T03:06:30.491Z,780.80
2023-04-26T03:07:33.013Z,988.90
2023-04-26T03:08:36.612Z,737.00
2023-04-26T03:09:38.942Z,922.42
2023-04-26T03:10:41.197Z,666.85
2023-04-26T03:11:43.791Z,810.58
2023-04-26T03:12:46.207Z,680.28
2023-04-26T03:13:48.478Z,551.50
2023-04-26T03:14:50.679Z,634.30
2023-04-26T03:15:53.832Z,548.95
2023-04-26T03:16:57.283Z,454.83
2023-04-26T03:18:00.855Z,344.55
2023-04-26T03:19:03.328Z,446.65
2023-04-26T03:20:08.928Z,196.90
2023-04-26T03:21:11.979Z,355.60
2023-04-26T03:22:16.152Z,410.77
2023-04-26T03:23:18.592Z,549.38
2023-04-26T03:24:20.746Z,450.65
2023-04-26T03:25:23.254Z,661.92
2023-04-26T03:26:26.025Z,556.60
2023-04-26T03:27:28.325Z,267.20
2023-04-26T03:28:31.218Z,489.98
2023-04-26T03:29:33.446Z,258.92
2023-04-26T03:30:36.060Z,365.98
2023-04-26T03:31:38.716Z,476.17
2023-04-26T03:32:41.213Z,475.70
2023-04-26T03:33:43.381Z,317.73
2023-04-26T03:34:47.656Z,632.70
2023-04-26T03:35:51.452Z,272.30
2023-04-26T03:36:53.662Z,311.67
2023-04-26T03:37:58.489Z,395.33
2023-04-26T03:39:02.248Z,525.50
2023-04-26T03:40:08.292Z,559.25
2023-04-26T03:41:10.761Z,251.35
2023-04-26T03:42:12.987Z,328.65
2023-04-26T03:43:15.311Z,157.35
2023-04-26T03:44:17.526Z,345.83
2023-04-26T03:45:20.609Z,356.88
2023-04-26T03:46:22.979Z,341.55
2023-04-26T03:47:25.401Z,280.42
2023-04-26T03:48:27.710Z,102.13
2023-04-26T03:49:29.900Z,170.13
2023-04-26T03:50:32.565Z,393.27
2023-04-26T03:51:35.877Z,375.10
2023-04-26T03:52:38.218Z,299.20
2023-04-26T03:53:41.682Z,332.30
2023-04-26T03:54:44.433Z,288.15
2023-04-26T03:55:47.527Z,322.88
2023-04-26T03:56:50.446Z,486.90
2023-04-26T03:57:53.877Z,378.70
2023-04-26T03:58:57.270Z,417.02
2023-04-26T04:00:01.128Z,409.92
2023-04-26T04:01:04.820Z,473.35
2023-04-26T04:02:07.164Z,439.20
2023-04-26T04:03:10.245Z,357.92
2023-04-26T04:04:12.863Z,429.95
2023-04-26T04:05:15.838Z,200.75
2023-04-26T04:06:18.241Z,274.95
2023-04-26T04:07:21.644Z,339.98
2023-04-26T04:08:23.919Z,283.30
2023-04-26T04:09:26.431Z,381.17
2023-04-26T04:10:29.597Z,399.73
2023-04-26T04:11:32.945Z,369.65
2023-04-26T04:12:35.117Z,318.63
2023-04-26T04:13:37.582Z,260.02
2023-04-26T04:14:40.122Z,272.23
2023-04-26T04:15:42.388Z,283.85
2023-04-26T04:16:44.650Z,374.48
2023-04-26T04:17:47.498Z,414.77
2023-04-26T04:18:50.231Z,515.55
2023-04-26T04:19:52.771Z,491.90
2023-04-26T04:20:54.955Z,357.75
2023-04-26T04:21:57.695Z,543.03
2023-04-26T04:23:02.122Z,508.77
2023-04-26T04:24:05.698Z,351.38
2023-04-26T04:25:10.533Z,385.30
2023-04-26T04:26:13.251Z,385.08
2023-04-26T04:27:16.341Z,458.45
2023-04-26T04:28:20.335Z,390.48
2023-04-26T04:29:22.719Z,422.10
2023-04-26T04:30:26.218Z,366.38
2023-04-26T04:31:28.562Z,321.33
2023-04-26T04:32:32.889Z,440.40
2023-04-26T04:33:35.696Z,360.50
2023-04-26T04:34:38.084Z,278.50
2023-04-26T04:35:43.340Z,298.88
2023-04-26T04:36:45.591Z,361.05
2023-04-26T04:37:49.942Z,245.57
2023-04-26T04:38:53.679Z,362.40
2023-04-26T04:39:56.651Z,380.10
2023-04-26T04:40:59.383Z,380.90
2023-04-26T04:42:01.568Z,222.98
2023-04-26T04:43:04.385Z,487.45
2023-04-26T04:44:07.690Z,663.20
2023-04-26T04:45:10.617Z,397.27
2023-04-26T04:46:14.754Z,506.35
2023-04-26T04:47:17.698Z,478.88
2023-04-26T04:48:21.288Z,409.38
2023-04-26T04:49:24.703Z,509.45
2023-04-26T04:50:27.065Z,526.20
2023-04-26T04:51:30.945Z,611.85
2023-04-26T04:52:33.273Z,472.52
2023-04-26T04:53:35.431Z,619.03
2023-04-26T04:54:37.782Z,362.27
2023-04-26T04:55:40.064Z,377.85
2023-04-26T04:56:44.419Z,375.00
2023-04-26T04:57:50.946Z,376.63
2023-04-26T04:58:54.147Z,267.85
2023-04-26T04:59:58.432Z,360.85
2023-04-26T05:01:02.812Z,384.67
2023-04-26T05:02:07.013Z,362.13
2023-04-26T05:03:10.040Z,313.20
2023-04-26T05:04:13.033Z,385.83
2023-04-26T05:05:15.596Z,273.90
2023-04-26T05:06:17.853Z,294.38
2023-04-26T05:07:20.338Z,286.13
2023-04-26T05:08:26.939Z,406.25
2023-04-26T05:09:30.190Z,414.70
2023-04-26T05:10:32.554Z,357.77
2023-04-26T05:11:35.012Z,271.17
2023-04-26T05:12:40.194Z,401.77
2023-04-26T05:13:42.378Z,323.40
2023-04-26T05:14:44.566Z,383.08
2023-04-26T05:15:46.738Z,419.60
2023-04-26T05:16:49.099Z,537.97
2023-04-26T05:17:52.704Z,414.30
2023-04-26T05:18:57.794Z,331.58
2023-04-26T05:20:00.592Z,424.80
2023-04-26T05:21:02.910Z,461.80
2023-04-26T05:22:05.742Z,315.02
2023-04-26T05:23:08.279Z,331.55
2023-04-26T05:24:10.777Z,176.95
2023-04-26T05:25:13.901Z,276.17
2023-04-26T05:26:17.186Z,376.65
2023-04-26T05:27:38.138Z,347.10
2023-04-26T05:29:03.714Z,246.70
2023-04-26T05:30:18.600Z,276.90
2023-04-26T05:31:24.894Z,248.90
2023-04-26T05:32:41.618Z,310.35
2023-04-26T05:34:09.149Z,343.08
2023-04-26T05:35:13.279Z,382.83
2023-04-26T05:36:15.602Z,284.25
2023-04-26T05:37:17.763Z,454.90
2023-04-26T05:38:21.841Z,297.50
2023-04-26T05:39:24.069Z,370.15
2023-04-26T05:40:27.018Z,397.80
2023-04-26T05:41:29.320Z,259.70
2023-04-26T05:42:31.518Z,200.20
2023-04-26T05:43:33.876Z,286.88
2023-04-26T05:44:36.342Z,327.30
2023-04-26T05:45:39.068Z,216.73
2023-04-26T05:46:41.373Z,262.88
2023-04-26T05:47:47.437Z,393.00
2023-04-26T05:48:49.728Z,292.00
2023-04-26T05:49:51.982Z,425.23
2023-04-26T05:50:54.377Z,329.05
2023-04-26T05:51:58.753Z,344.20
2023-04-26T05:53:00.919Z,393.70
2023-04-26T05:54:04.924Z,450.08
2023-04-26T05:55:08.875Z,470.45
2023-04-26T05:56:11.634Z,394.23
2023-04-26T05:57:15.123Z,364.83
2023-04-26T05:58:17.521Z,346.98
2023-04-26T05:59:21.081Z,266.35
2023-04-26T06:00:23.562Z,288.58
2023-04-26T06:01:27.706Z,297.80
2023-04-26T06:02:30.542Z,255.07
2023-04-26T06:03:33.149Z,264.75
2023-04-26T06:04:35.701Z,386.90
2023-04-26T06:05:42.502Z,422.45
2023-04-26T06:06:44.774Z,369.58
2023-04-26T06:07:47.095Z,227.15
2023-04-26T06:08:49.278Z,134.00
2023-04-26T06:09:51.752Z,156.82
2023-04-26T06:10:54.545Z,121.47
2023-04-26T06:11:57.013Z,234.70
2023-04-26T06:12:59.578Z,271.77
2023-04-26T06:14:04.624Z,290.83
2023-04-26T06:15:07.239Z,282.70
2023-04-26T06:16:11.194Z,244.98
2023-04-26T06:17:14.149Z,160.10
2023-04-26T06:18:16.551Z,157.73
2023-04-26T06:19:18.847Z,112.05
2023-04-26T06:20:21.281Z,97.20
2023-04-26T06:21:23.656Z,42.67
2023-04-26T06:22:27.246Z,50.65
2023-04-26T06:23:29.611Z,103.45
2023-04-26T06:24:31.860Z,65.70
2023-04-26T06:25:34.298Z,141.57
2023-04-26T06:26:36.545Z,42.47
2023-04-26T06:27:39.835Z,82.55
2023-04-26T06:28:42.413Z,96.00
2023-04-26T06:29:45.146Z,87.28
2023-04-26T06:30:47.594Z,113.53
2023-04-26T06:31:50.213Z,86.00
2023-04-26T06:32:55.235Z,62.50
2023-04-26T06:33:57.822Z,46.97
2023-04-26T06:35:01.252Z,21.42
2023-04-26T06:36:03.659Z,30.67
2023-04-26T06:37:06.261Z,21.05
2023-04-26T06:38:09.133Z,16.83
2023-04-26T06:39:12.108Z,17.35
2023-04-26T06:40:15.858Z,17.33
2023-04-26T06:41:18.494Z,16.52
2023-04-26T06:42:23.745Z,17.63
2023-04-26T06:43:55.789Z,16.90
2023-04-26T06:45:05.603Z,16.00
2023-04-26T06:46:10.790Z,23.02
2023-04-26T06:47:17.182Z,15.82
2023-04-26T06:48:19.360Z,20.15
2023-04-26T06:49:21.570Z,16.77
2023-04-26T06:50:23.686Z,21.15
2023-04-26T06:51:25.823Z,16.98
2023-04-26T06:52:29.684Z,16.83
2023-04-26T06:53:31.880Z,18.42
2023-04-26T06:54:37.751Z,16.77
2023-04-26T06:55:42.419Z,18.90
2023-04-26T06:56:44.833Z,25.42
2023-04-26T06:57:47.275Z,20.17
2023-04-26T06:59:03.788Z,18.45
2023-04-26T07:00:06.615Z,19.40
2023-04-26T07:01:09.903Z,21.48
2023-04-26T07:02:13.300Z,23.83
2023-04-26T07:03:16.996Z,19.45
2023-04-26T07:04:20.740Z,18.25
2023-04-26T07:05:23.482Z,17.90
2023-04-26T07:06:26.292Z,20.52
2023-04-26T07:07:28.482Z,18.00
2023-04-26T07:08:31.291Z,17.48
2023-04-26T07:09:33.596Z,16.05
2023-04-26T07:10:35.882Z,16.10
2023-04-26T07:11:38.214Z,20.15
2023-04-26T07:12:40.408Z,16.40
2023-04-26T07:13:42.632Z,17.90
2023-04-26T07:14:44.869Z,14.80
2023-04-26T07:15:47.115Z,21.13
2023-04-26T07:16:49.339Z,17.75
2023-04-26T07:17:51.745Z,18.58
2023-04-26T07:18:54.114Z,20.30
2023-04-26T07:19:56.371Z,18.70
2023-04-26T07:20:58.687Z,18.45
2023-04-26T07:22:01.495Z,18.48
2023-04-26T07:23:03.805Z,17.17
2023-04-26T07:24:06.657Z,15.77
2023-04-26T07:25:08.954Z,17.10
2023-04-26T07:26:11.739Z,18.70
2023-04-26T07:27:13.889Z,15.07
2023-04-26T07:28:16.136Z,16.08
2023-04-26T07:29:19.014Z,15.27
2023-04-26T07:30:21.260Z,16.38
2023-04-26T07:31:23.421Z,15.68
2023-04-26T07:32:25.749Z,13.38
2023-04-26T07:33:27.973Z,17.27
2023-04-26T07:34:30.422Z,16.45
2023-04-26T07:35:35.163Z,14.95
2023-04-26T07:36:37.550Z,14.57
2023-04-26T07:37:39.731Z,16.17
2023-04-26T07:38:42.305Z,14.50
2023-04-26T07:39:44.450Z,11.35
2023-04-26T07:40:46.603Z,14.70
2023-04-26T07:41:48.836Z,14.13
2023-04-26T07:42:50.993Z,13.00
2023-04-26T07:43:53.418Z,14.63
2023-04-26T07:44:55.776Z,16.17
2023-04-26T07:46:02.105Z,15.93
2023-04-26T07:47:04.645Z,13.45
2023-04-26T07:48:07.325Z,9.93
2023-04-26T07:49:09.673Z,11.18
2023-04-26T07:50:12.295Z,12.52
2023-04-26T07:51:14.586Z,13.55
2023-04-26T07:52:16.756Z,11.40
2023-04-26T07:53:19.072Z,15.65
2023-04-26T07:54:21.272Z,11.65
2023-04-26T07:55:23.622Z,10.70
2023-04-26T07:56:25.820Z,13.77
2023-04-26T07:57:28.282Z,10.02
2023-04-26T07:58:32.881Z,10.43
2023-04-26T07:59:35.073Z,12.35
2023-04-26T08:00:38.642Z,14.00
2023-04-26T08:01:41.312Z,11.57
2023-04-26T08:02:45.499Z,13.05
2023-04-26T08:03:49.092Z,15.93
2023-04-26T08:04:55.667Z,13.02
2023-04-26T08:05:59.163Z,11.80
2023-04-26T08:07:02.038Z,9.10
2023-04-26T08:08:04.405Z,12.65
2023-04-26T08:09:06.590Z,15.82
2023-04-26T08:10:09.284Z,11.85
2023-04-26T08:11:11.787Z,13.10
2023-04-26T08:12:14.052Z,13.15
2023-04-26T08:13:16.761Z,13.25
2023-04-26T08:14:18.922Z,10.65
2023-04-26T08:15:21.239Z,12.38
2023-04-26T08:16:23.477Z,12.68
2023-04-26T08:17:25.775Z,13.38
2023-04-26T08:18:27.958Z,11.90
2023-04-26T08:19:32.674Z,12.30
2023-04-26T08:20:34.903Z,12.50
2023-04-26T08:21:37.610Z,10.13
2023-04-26T08:22:39.822Z,14.20
2023-04-26T08:23:42.109Z,12.98
2023-04-26T08:24:49.781Z,14.38
2023-04-26T08:25:52.093Z,7.90
2023-04-26T08:26:55.294Z,10.52
2023-04-26T08:27:57.831Z,12.55
2023-04-26T08:28:59.961Z,10.05
2023-04-26T08:30:02.374Z,13.80
2023-04-26T08:31:05.920Z,8.10
2023-04-26T08:32:08.106Z,15.40
2023-04-26T08:33:10.367Z,12.43
2023-04-26T08:34:13.540Z,10.30
2023-04-26T08:35:15.704Z,9.88
2023-04-26T08:36:17.906Z,12.50
2023-04-26T08:37:20.079Z,11.05
2023-04-26T08:38:22.736Z,8.95
2023-04-26T08:39:25.197Z,10.00
2023-04-26T08:40:27.379Z,10.70
2023-04-26T08:41:35.330Z,5.85
2023-04-26T08:42:44.316Z,11.02
2023-04-26T08:43:46.616Z,10.88
2023-04-26T08:44:48.969Z,9.32
2023-04-26T08:45:51.631Z,12.43
2023-04-26T08:47:19.315Z,9.40
2023-04-26T08:48:21.760Z,9.00
2023-04-26T08:49:38.182Z,9.93
2023-04-26T08:50:44.178Z,11.05
2023-04-26T08:51:47.414Z,7.97
2023-04-26T08:52:51.696Z,11.35
2023-04-26T08:53:56.813Z,10.23
2023-04-26T08:55:00.288Z,10.30
2023-04-26T08:56:04.104Z,10.88
2023-04-26T08:57:07.522Z,11.15
2023-04-26T08:58:11.664Z,12.13
2023-04-26T08:59:15.109Z,9.85
2023-04-26T09:00:18.640Z,10.15
2023-04-26T09:01:21.659Z,7.32
2023-04-26T09:02:25.094Z,10.75
2023-04-26T09:03:28.079Z,8.75
2023-04-26T09:04:31.570Z,9.50
2023-04-26T09:05:34.437Z,9.77
2023-04-26T09:06:37.318Z,7.35
2023-04-26T09:07:44.665Z,7.45
2023-04-26T09:08:47.407Z,10.25
2023-04-26T09:09:53.078Z,9.15
2023-04-26T09:10:55.910Z,10.48
2023-04-26T09:12:00.776Z,9.48
2023-04-26T09:13:03.084Z,9.98
2023-04-26T09:14:05.233Z,9.25
2023-04-26T09:15:08.182Z,8.35
2023-04-26T09:16:10.700Z,9.00
2023-04-26T09:17:32.650Z,11.02
2023-04-26T09:18:34.988Z,9.35
2023-04-26T09:19:42.433Z,7.57
2023-04-26T09:20:45.771Z,9.52
2023-04-26T09:21:48.039Z,8.05
2023-04-26T09:22:52.181Z,7.55
2023-04-26T09:23:58.804Z,10.70
2023-04-26T09:25:02.530Z,10.13
2023-04-26T09:26:20.974Z,6.60
2023-04-26T09:27:32.343Z,12.68
2023-04-26T09:28:34.454Z,7.72
2023-04-26T09:29:36.665Z,7.57
2023-04-26T09:30:39.869Z,9.25
2023-04-26T09:31:49.607Z,8.77
2023-04-26T09:32:59.322Z,9.23
2023-04-26T09:34:01.612Z,9.68
2023-04-26T09:35:04.497Z,8.65
2023-04-26T09:36:13.329Z,6.97
2023-04-26T09:37:15.559Z,10.02
2023-04-26T09:38:18.592Z,7.78
2023-04-26T09:39:34.198Z,9.43
2023-04-26T09:40:37.246Z,9.75
2023-04-26T09:41:45.666Z,8.88
2023-04-26T09:42:57.916Z,9.45
2023-04-26T09:44:00.269Z,8.85
2023-04-26T09:45:08.679Z,10.07
2023-04-26T09:46:10.897Z,9.60
2023-04-26T09:47:13.161Z,9.40
2023-04-26T09:48:22.414Z,12.27
2023-04-26T09:49:27.395Z,11.38
2023-04-26T09:50:31.462Z,9.07
2023-04-26T09:51:33.636Z,9.15
2023-04-26T09:52:44.676Z,7.50
2023-04-26T09:53:49.878Z,7.60
2023-04-26T09:54:53.883Z,10.43
2023-04-26T09:55:56.892Z,8.88
2023-04-26T09:57:00.362Z,9.52
2023-04-26T09:58:10.480Z,10.55
2023-04-26T09:59:12.681Z,6.35
2023-04-26T10:00:15.253Z,8.90
2023-04-26T10:01:19.549Z,8.88
2023-04-26T10:02:23.078Z,7.18
2023-04-26T10:03:26.769Z,8.90
2023-04-26T10:04:29.186Z,7.63
2023-04-26T10:05:34.005Z,7.30
2023-04-26T10:06:36.429Z,8.20
2023-04-26T10:07:41.260Z,10.48
2023-04-26T10:08:44.185Z,13.13
2023-04-26T10:09:46.905Z,8.70
2023-04-26T10:10:49.618Z,9.80
2023-04-26T10:11:51.949Z,11.23
2023-04-26T10:12:54.180Z,8.30
2023-04-26T10:13:56.476Z,10.57
2023-04-26T10:14:58.687Z,8.13
2023-04-26T10:16:02.089Z,9.43
2023-04-26T10:17:05.737Z,8.63
2023-04-26T10:18:08.765Z,10.13
2023-04-26T10:19:12.011Z,9.32
2023-04-26T10:20:18.285Z,8.43
2023-04-26T10:21:31.229Z,7.68
2023-04-26T10:22:39.911Z,9.52
2023-04-26T10:23:42.229Z,7.20
2023-04-26T10:24:44.962Z,8.80
2023-04-26T10:25:47.927Z,14.38
2023-04-26T10:26:56.625Z,7.65
2023-04-26T10:27:58.902Z,9.95
2023-04-26T10:29:02.986Z,7.25
2023-04-26T10:30:07.496Z,6.38
2023-04-26T10:31:10.438Z,5.47
2023-04-26T10:32:17.525Z,7.35
2023-04-26T10:33:20.532Z,8.27
2023-04-26T10:34:22.944Z,13.43
2023-04-26T10:35:30.310Z,8.18
2023-04-26T10:36:33.518Z,10.82
2023-04-26T10:37:35.754Z,7.70
2023-04-26T10:38:42.947Z,11.02
2023-04-26T10:39:46.999Z,6.90
2023-04-26T10:40:50.398Z,7.75
2023-04-26T10:42:25.518Z,6.60
2023-04-26T10:43:28.811Z,11.20
2023-04-26T10:44:39.902Z,8.10
2023-04-26T10:45:49.227Z,9.32
2023-04-26T10:46:52.706Z,9.98
2023-04-26T10:48:13.511Z,8.57
2023-04-26T10:49:17.818Z,7.63
2023-04-26T10:50:20.014Z,7.82
2023-04-26T10:51:22.222Z,7.50
2023-04-26T10:52:24.390Z,7.13
2023-04-26T10:53:30.848Z,10.25
2023-04-26T10:54:50.701Z,5.82
2023-04-26T10:55:53.240Z,6.53
2023-04-26T10:56:55.564Z,6.13
2023-04-26T10:57:57.763Z,8.60
2023-04-26T10:59:36.147Z,6.78
2023-04-26T11:01:01.483Z,4.90
2023-04-26T11:02:04.123Z,7.22
2023-04-26T11:03:10.276Z,10.15
2023-04-26T11:04:13.411Z,7.65
2023-04-26T11:05:35.067Z,8.35
2023-04-26T11:06:51.002Z,8.63
2023-04-26T11:08:06.373Z,7.22
2023-04-26T11:09:39.435Z,4.93
2023-04-26T11:10:42.580Z,7.60
2023-04-26T11:11:53.669Z,6.60
2023-04-26T11:13:01.580Z,6.35
2023-04-26T11:14:03.916Z,5.50
2023-04-26T11:15:07.171Z,10.20
2023-04-26T11:16:11.606Z,7.43
2023-04-26T11:17:13.815Z,7.25
2023-04-26T11:18:18.993Z,6.68
2023-04-26T11:19:21.389Z,5.45
2023-04-26T11:20:28.203Z,5.97
2023-04-26T11:21:32.613Z,5.30
2023-04-26T11:22:39.195Z,8.75
2023-04-26T11:23:41.533Z,7.43
2023-04-26T11:24:43.732Z,5.82
2023-04-26T11:25:45.885Z,6.32
2023-04-26T11:26:54.176Z,6.88
2023-04-26T11:28:03.159Z,6.35
2023-04-26T11:29:07.914Z,6.32
2023-04-26T11:30:10.837Z,8.23
2023-04-26T11:31:14.399Z,7.80
2023-04-26T11:32:16.616Z,6.47
2023-04-26T11:33:22.844Z,8.57
2023-04-26T11:34:35.319Z,7.03
2023-04-26T11:36:41.181Z,7.45
2023-04-26T11:37:45.574Z,7.60
2023-04-26T11:38:47.839Z,7.82
2023-04-26T11:39:51.273Z,7.53
2023-04-26T11:40:58.269Z,6.85
2023-04-26T11:42:07.272Z,5.57
2023-04-26T11:43:10.806Z,7.60
2023-04-26T11:44:12.997Z,7.20
2023-04-26T11:45:16.507Z,9.10
2023-04-26T11:46:21.441Z,7.10
2023-04-26T11:47:24.019Z,8.55
2023-04-26T11:48:26.381Z,11.63
2023-04-26T11:49:28.832Z,9.10
2023-04-26T11:50:36.658Z,6.20
2023-04-26T11:51:38.890Z,6.70
2023-04-26T11:52:41.630Z,4.85
2023-04-26T11:53:44.455Z,5.82
2023-04-26T11:54:46.674Z,8.00
2023-04-26T11:55:48.817Z,6.78
2023-04-26T11:56:51.104Z,8.63
2023-04-26T11:57:53.633Z,6.32
2023-04-26T11:58:56.767Z,6.22
2023-04-26T12:00:11.326Z,7.15
2023-04-26T12:01:20.803Z,6.60
2023-04-26T12:02:24.238Z,6.68
2023-04-26T12:03:31.179Z,9.65
2023-04-26T12:04:34.220Z,12.02
2023-04-26T12:05:36.860Z,7.63
2023-04-26T12:06:44.373Z,9.38
2023-04-26T12:07:50.560Z,7.75
2023-04-26T12:08:52.943Z,8.27
2023-04-26T12:09:56.790Z,8.27
2023-04-26T12:11:01.893Z,8.15
2023-04-26T12:12:08.264Z,5.47
2023-04-26T12:13:13.722Z,8.52
2023-04-26T12:14:16.382Z,9.82
2023-04-26T12:15:19.485Z,10.15
2023-04-26T12:16:26.897Z,7.13
2023-04-26T12:17:29.440Z,5.90
2023-04-26T12:18:32.577Z,7.30
2023-04-26T12:19:38.999Z,6.35
2023-04-26T12:20:42.672Z,7.55
2023-04-26T12:21:44.857Z,6.32
2023-04-26T12:22:58.868Z,8.43
2023-04-26T12:24:01.506Z,10.70
2023-04-26T12:25:07.208Z,8.75
2023-04-26T12:26:12.077Z,6.32
2023-04-26T12:27:21.899Z,10.85
2023-04-26T12:28:24.662Z,9.38
2023-04-26T12:29:28.695Z,8.80
2023-04-26T12:30:31.305Z,6.55
2023-04-26T12:31:39.534Z,7.03
2023-04-26T12:32:42.111Z,11.88
2023-04-26T12:33:44.362Z,7.10
2023-04-26T12:34:46.506Z,8.25
2023-04-26T12:35:51.865Z,7.45
2023-04-26T12:36:54.678Z,8.85
2023-04-26T12:37:57.217Z,10.07
2023-04-26T12:39:00.793Z,5.38
2023-04-26T12:40:03.169Z,6.90
2023-04-26T12:41:05.713Z,8.90
2023-04-26T12:42:08.365Z,5.55
2023-04-26T12:43:10.769Z,5.40
2023-04-26T12:44:14.332Z,5.25
2023-04-26T12:45:18.538Z,6.90
2023-04-26T12:46:20.820Z,8.68
2023-04-26T12:47:23.109Z,6.78
2023-04-26T12:48:25.341Z,4.85
2023-04-26T12:49:29.531Z,8.40
2023-04-26T12:50:32.182Z,7.47
2023-04-26T12:51:34.418Z,6.53
2023-04-26T12:52:36.554Z,6.38
2023-04-26T12:53:38.686Z,5.63
2023-04-26T12:54:40.879Z,5.95
2023-04-26T12:55:44.025Z,8.93
2023-04-26T12:56:46.541Z,9.38
2023-04-26T12:57:48.758Z,9.23
2023-04-26T12:58:51.013Z,9.05
2023-04-26T12:59:54.292Z,11.93
2023-04-26T13:00:56.494Z,5.75
2023-04-26T13:01:58.817Z,7.28
2023-04-26T13:03:01.484Z,8.30
2023-04-26T13:04:05.696Z,6.57
2023-04-26T13:05:09.288Z,5.82
2023-04-26T13:06:11.923Z,5.38
2023-04-26T13:07:14.441Z,7.97
2023-04-26T13:08:16.799Z,9.32
2023-04-26T13:09:19.046Z,9.40
2023-04-26T13:10:21.424Z,6.43
2023-04-26T13:11:23.622Z,7.47
2023-04-26T13:12:25.901Z,5.85
2023-04-26T13:13:36.188Z,11.38
2023-04-26T13:14:46.014Z,6.68
2023-04-26T13:15:48.249Z,8.93
2023-04-26T13:16:52.237Z,5.25
2023-04-26T13:17:54.414Z,8.95
2023-04-26T13:18:56.686Z,7.40
2023-04-26T13:19:58.968Z,6.00
2023-04-26T13:21:01.217Z,7.80
2023-04-26T13:22:04.687Z,9.32
2023-04-26T13:23:07.516Z,9.73
2023-04-26T13:24:09.712Z,6.85
2023-04-26T13:25:13.138Z,6.18
2023-04-26T13:26:19.862Z,9.32
2023-04-26T13:27:22.049Z,7.85
2023-04-26T13:28:24.176Z,7.18
2023-04-26T13:29:26.708Z,6.63
2023-04-26T13:30:28.906Z,6.43
2023-04-26T13:31:31.137Z,7.22
2023-04-26T13:32:33.375Z,7.93
2023-04-26T13:33:35.583Z,7.05
2023-04-26T13:34:37.953Z,7.82
2023-04-26T13:35:40.171Z,6.75
2023-04-26T13:36:42.404Z,7.10
2023-04-26T13:37:44.609Z,3.60
2023-04-26T13:38:46.739Z,10.77
2023-04-26T13:39:49.157Z,7.88
2023-04-26T13:40:51.816Z,7.75
2023-04-26T13:41:54.521Z,8.32
2023-04-26T13:42:56.784Z,8.73
2023-04-26T13:44:00.823Z,7.20
2023-04-26T13:45:06.426Z,7.97
2023-04-26T13:46:09.368Z,10.20
2023-04-26T13:47:11.637Z,7.60